Time;durP1;ratioP1;P1;durP2;ratioP2;P2;SDS_P1;SDS_P2;PMS_P1;PMS_P2;Temp;Humidity;BMP_temperature;BMP_pressure;BME280_temperature;BME280_humidity;BME280_pressure;Samples;Min_cycle;Max_cycle;Signal;HPM_P1;HPM_P2
2021/06/13 00:01:28;;;;;;;10.48;2.17;;;;;;;13.95;55.72;101813.22;5022410;28;20026;-70
2021/06/13 00:03:54;;;;;;;13.57;2.65;;;;;;;13.80;55.81;101812.38;5017349;28;20503;-71
2021/06/13 00:06:20;;;;;;;9.45;2.83;;;;;;;13.95;55.42;101813.22;5028794;28;20125;-70
2021/06/13 00:08:45;;;;;;;11.15;2.13;;;;;;;13.93;55.38;101820.00;5015914;28;20052;-70
2021/06/13 00:11:11;;;;;;;11.43;2.80;;;;;;;13.65;55.97;101815.00;5016437;28;20029;-70
2021/06/13 00:13:38;;;;;;;12.95;2.30;;;;;;;13.64;56.11;101811.53;5017074;28;20040;-70
2021/06/13 00:16:04;;;;;;;9.63;2.30;;;;;;;13.81;55.54;101814.16;5015246;28;20033;-70
2021/06/13 00:18:30;;;;;;;10.60;3.42;;;;;;;13.71;55.61;101813.66;5021684;28;20025;-70
2021/06/13 00:20:56;;;;;;;10.05;2.70;;;;;;;13.72;55.86;101820.63;5023302;28;20421;-70
2021/06/13 00:23:22;;;;;;;11.57;2.80;;;;;;;13.77;55.36;101814.81;5034892;28;20038;-71
2021/06/13 00:25:49;;;;;;;7.60;2.15;;;;;;;13.76;55.41;101815.63;5034745;28;20025;-70
2021/06/13 00:28:15;;;;;;;11.43;2.13;;;;;;;13.75;55.35;101813.84;5030290;28;20032;-71
2021/06/13 00:30:41;;;;;;;11.63;2.90;;;;;;;13.68;55.48;101823.84;5016107;28;20026;-70
2021/06/13 00:33:07;;;;;;;7.80;2.33;;;;;;;13.77;55.29;101827.75;5016598;28;20028;-70
2021/06/13 00:35:33;;;;;;;8.45;2.35;;;;;;;13.77;55.39;101825.16;5034254;28;20108;-70
2021/06/13 00:37:58;;;;;;;16.65;2.58;;;;;;;13.72;55.32;101820.63;5020130;28;20040;-70
2021/06/13 00:40:26;;;;;;;8.98;2.42;;;;;;;13.77;55.18;101822.56;5035757;28;20025;-70
2021/06/13 00:42:52;;;;;;;14.63;3.78;;;;;;;13.51;56.09;101829.78;5021083;28;20475;-70
2021/06/13 00:45:19;;;;;;;7.50;1.95;;;;;;;13.59;56.21;101828.53;5034287;28;20029;-70
2021/06/13 00:47:44;;;;;;;8.85;2.63;;;;;;;13.47;56.32;101820.94;5026530;28;20376;-70
2021/06/13 00:50:16;;;;;;;9.20;2.78;;;;;;;13.44;56.56;101833.72;5024174;28;20083;-70
2021/06/13 00:52:43;;;;;;;8.55;3.55;;;;;;;13.38;56.67;101834.25;5031622;28;20029;-70
2021/06/13 00:55:09;;;;;;;11.27;2.35;;;;;;;13.24;57.34;101829.94;5034277;28;20022;-70
2021/06/13 00:57:35;;;;;;;32.15;3.30;;;;;;;13.18;57.71;101829.59;5034459;28;20171;-70
2021/06/13 01:00:00;;;;;;;8.10;2.72;;;;;;;13.19;58.06;101831.38;5016602;28;20104;-70
2021/06/13 01:02:26;;;;;;;11.32;2.83;;;;;;;13.08;58.14;101839.41;5027174;28;20029;-70
2021/06/13 01:04:52;;;;;;;13.07;2.58;;;;;;;13.11;58.45;101829.25;5023634;28;20426;-70
2021/06/13 01:07:27;;;;;;;8.32;2.47;;;;;;;13.08;58.60;101831.66;5017156;28;20081;-70
2021/06/13 01:10:03;;;;;;;10.85;3.42;;;;;;;13.06;58.72;101835.84;5018561;28;20049;-70
2021/06/13 01:12:39;;;;;;;6.63;2.15;;;;;;;13.04;58.70;101837.47;5014122;28;20110;-70
2021/06/13 01:15:11;;;;;;;9.88;2.28;;;;;;;13.02;59.32;101836.47;5032467;28;20517;-71
2021/06/13 01:17:55;;;;;;;10.57;2.60;;;;;;;12.88;59.81;101845.13;5016616;28;20034;-70
2021/06/13 01:20:26;;;;;;;8.30;2.40;;;;;;;12.84;60.14;101844.94;5021651;28;20447;-70
2021/06/13 01:23:25;;;;;;;8.68;2.47;;;;;;;12.87;60.15;101844.25;5028996;28;20049;-69
2021/06/13 01:26:22;;;;;;;7.57;3.63;;;;;;;12.85;60.40;101846.72;5033750;28;20439;-70
2021/06/13 01:29:03;;;;;;;9.25;2.80;;;;;;;12.78;60.52;101843.69;5027446;28;20025;-70
2021/06/13 01:31:39;;;;;;;13.52;2.65;;;;;;;12.93;60.21;101838.53;5020836;28;20427;-70
2021/06/13 01:34:08;;;;;;;13.43;3.10;;;;;;;12.92;60.34;101842.81;5031579;28;20374;-71
2021/06/13 01:36:36;;;;;;;9.57;2.35;;;;;;;12.82;60.91;101835.31;5013822;28;20030;-70
2021/06/13 01:39:05;;;;;;;7.95;2.25;;;;;;;12.92;60.63;101841.91;5015847;28;20437;-70
2021/06/13 01:41:34;;;;;;;6.93;2.47;;;;;;;12.88;60.57;101839.94;5018080;28;20018;-70
2021/06/13 01:44:00;;;;;;;9.68;2.40;;;;;;;12.90;60.45;101843.53;5031495;28;20107;-70
2021/06/13 01:46:31;;;;;;;13.20;2.95;;;;;;;12.91;60.22;101834.97;5033395;28;20065;-70
2021/06/13 01:48:58;;;;;;;13.00;2.65;;;;;;;12.92;60.29;101847.09;5029995;28;20029;-71
2021/06/13 01:51:23;;;;;;;10.15;2.72;;;;;;;13.06;59.57;101851.38;5007068;28;20108;-71
2021/06/13 01:53:50;;;;;;;10.23;2.50;;;;;;;13.07;59.36;101847.97;5031299;28;20121;-70
2021/06/13 01:56:16;;;;;;;14.52;2.78;;;;;;;13.10;59.17;101836.94;5033158;28;20028;-70
2021/06/13 01:58:46;;;;;;;6.15;2.35;;;;;;;13.22;58.90;101847.09;5029457;28;20053;-70
2021/06/13 02:01:18;;;;;;;10.13;2.20;;;;;;;13.40;58.20;101843.00;5028112;28;20032;-70
2021/06/13 02:03:47;;;;;;;7.55;3.00;;;;;;;13.52;57.68;101847.09;5019149;28;20030;-70
2021/06/13 02:06:13;;;;;;;14.70;2.92;;;;;;;13.69;57.19;101846.34;5013215;28;20471;-70
2021/06/13 02:08:39;;;;;;;14.30;2.95;;;;;;;13.40;57.43;101847.25;5013090;28;20100;-70
2021/06/13 02:11:08;;;;;;;13.13;2.70;;;;;;;13.61;56.99;101852.81;5024442;28;20033;-70
2021/06/13 02:13:36;;;;;;;14.02;2.72;;;;;;;13.68;57.09;101844.56;5022942;28;20033;-71
2021/06/13 02:16:02;;;;;;;10.68;2.50;;;;;;;13.71;56.61;101844.72;5023513;28;20105;-70
2021/06/13 02:18:27;;;;;;;10.55;2.70;;;;;;;13.76;56.79;101857.03;5023332;28;20561;-70
2021/06/13 02:20:54;;;;;;;15.52;2.42;;;;;;;13.72;56.62;101862.06;5019930;28;20459;-70
2021/06/13 02:23:23;;;;;;;12.25;2.25;;;;;;;13.73;56.16;101869.03;5020494;28;20038;-71
2021/06/13 02:25:49;;;;;;;7.45;2.47;;;;;;;13.83;56.06;101864.34;5013659;28;20037;-70
2021/06/13 02:28:16;;;;;;;13.38;2.75;;;;;;;13.80;56.63;101869.34;5013809;28;20029;-71
2021/06/13 02:30:42;;;;;;;12.05;2.78;;;;;;;13.96;55.87;101882.34;5027067;28;20048;-70
2021/06/13 02:33:11;;;;;;;13.18;2.80;;;;;;;13.90;55.91;101884.59;5030728;28;20029;-70
2021/06/13 02:35:42;;;;;;;10.75;2.25;;;;;;;13.78;57.49;101878.75;5022938;28;20029;-71
2021/06/13 02:38:08;;;;;;;10.55;3.20;;;;;;;13.93;56.64;101879.59;4995787;28;20034;-71
2021/06/13 02:40:34;;;;;;;9.43;2.35;;;;;;;13.98;56.86;101880.72;5016570;28;20036;-70
2021/06/13 02:43:00;;;;;;;8.88;2.20;;;;;;;13.60;57.52;101882.06;5012674;28;20104;-71
2021/06/13 02:45:25;;;;;;;12.98;3.25;;;;;;;13.71;57.02;101881.00;5013113;28;20159;-70
2021/06/13 02:47:51;;;;;;;12.25;2.35;;;;;;;13.89;56.72;101880.22;5015126;28;20383;-70
2021/06/13 02:50:20;;;;;;;5.93;2.10;;;;;;;14.06;56.19;101888.03;5027014;28;20025;-70
2021/06/13 02:52:54;;;;;;;12.75;2.30;;;;;;;14.00;56.21;101884.28;5019301;28;20047;-70
2021/06/13 02:55:21;;;;;;;9.98;2.53;;;;;;;13.93;56.65;101887.34;5033143;28;20378;-70
2021/06/13 02:57:55;;;;;;;9.38;2.38;;;;;;;13.91;56.92;101882.91;5031855;28;20537;-70
2021/06/13 03:03:43;;;;;;;8.88;2.08;;;;;;;14.00;56.50;101888.59;5025112;28;20100;-70
2021/06/13 03:06:19;;;;;;;9.63;2.78;;;;;;;13.99;56.32;101885.09;5024082;28;20033;-70
2021/06/13 03:08:44;;;;;;;8.63;2.83;;;;;;;13.86;57.02;101890.41;5031612;28;20072;-70
2021/06/13 03:11:10;;;;;;;7.30;2.58;;;;;;;14.05;56.44;101886.25;5031422;28;20374;-70
2021/06/13 03:13:36;;;;;;;12.30;2.90;;;;;;;14.23;56.02;101897.59;5022836;28;20119;-70
2021/06/13 03:16:03;;;;;;;12.48;3.05;;;;;;;13.97;56.96;101889.31;5012081;28;20140;-70
2021/06/13 03:18:29;;;;;;;8.00;2.42;;;;;;;14.08;56.50;101891.59;5011600;28;20467;-70
2021/06/13 03:20:57;;;;;;;13.25;2.90;;;;;;;14.17;56.18;101886.91;5022493;28;20037;-70
2021/06/13 03:23:23;;;;;;;9.40;2.50;;;;;;;14.20;56.44;101886.19;5019676;28;20461;-70
2021/06/13 03:25:49;;;;;;;13.50;2.75;;;;;;;14.16;56.36;101887.72;5031431;28;20056;-70
2021/06/13 03:28:16;;;;;;;11.70;3.22;;;;;;;14.28;56.13;101890.97;5014103;28;20067;-70
2021/06/13 03:30:42;;;;;;;13.57;2.97;;;;;;;14.21;56.38;101899.22;5027099;28;20052;-70
2021/06/13 03:33:08;;;;;;;13.32;3.15;;;;;;;14.32;56.36;101913.69;5030115;28;20510;-70
2021/06/13 03:35:33;;;;;;;13.48;2.53;;;;;;;14.29;56.37;101913.50;5025831;28;20033;-70
2021/06/13 03:38:00;;;;;;;7.18;2.75;;;;;;;14.37;56.27;101915.63;5018241;28;20025;-70
2021/06/13 03:40:27;;;;;;;10.43;2.38;;;;;;;14.30;56.22;101910.09;5028887;28;20029;-70
2021/06/13 03:42:54;;;;;;;9.90;2.78;;;;;;;14.39;56.17;101911.44;5016242;28;20038;-70
2021/06/13 03:45:21;;;;;;;6.07;2.35;;;;;;;14.23;56.70;101913.16;5029757;28;20026;-70
2021/06/13 03:47:48;;;;;;;14.18;2.78;;;;;;;14.39;56.09;101903.66;5016613;28;20033;-70
2021/06/13 03:50:15;;;;;;;15.00;3.10;;;;;;;14.31;56.30;101905.81;5022858;28;20029;-70
2021/06/13 03:52:41;;;;;;;15.40;3.47;;;;;;;14.41;56.06;101907.22;5022192;28;20475;-69
2021/06/13 03:55:09;;;;;;;12.25;3.30;;;;;;;14.43;55.84;101906.47;5035078;28;20028;-70
2021/06/13 03:57:35;;;;;;;16.65;2.78;;;;;;;14.15;56.64;101906.66;5031130;28;20459;-70
2021/06/13 04:00:03;;;;;;;13.95;3.40;;;;;;;14.43;55.80;101900.41;5035220;28;20479;-70
2021/06/13 04:02:28;;;;;;;17.20;4.18;;;;;;;14.38;56.08;101913.09;5018163;28;20029;-70
2021/06/13 04:04:55;;;;;;;15.68;2.78;;;;;;;14.45;55.98;101914.34;5035306;28;20025;-69
2021/06/13 04:07:21;;;;;;;12.70;2.65;;;;;;;14.32;56.30;101918.88;5025299;28;20463;-70
2021/06/13 04:09:47;;;;;;;10.32;2.55;;;;;;;14.21;56.74;101922.53;5014996;28;20076;-70
2021/06/13 04:12:20;;;;;;;20.40;3.53;;;;;;;14.38;55.98;101922.59;5016492;28;20076;-70
2021/06/13 04:14:47;;;;;;;15.98;3.78;;;;;;;14.59;55.79;101928.94;5011463;28;20029;-70
2021/06/13 04:17:14;;;;;;;17.15;3.53;;;;;;;14.45;55.79;101929.91;5026466;28;20139;-70
2021/06/13 04:19:40;;;;;;;10.80;3.47;;;;;;;14.39;56.15;101921.78;5021118;28;20540;-70
2021/06/13 04:22:09;;;;;;;11.45;2.55;;;;;;;14.63;55.41;101934.28;5025746;28;20038;-70
2021/06/13 04:24:35;;;;;;;12.20;3.08;;;;;;;14.78;55.07;101929.94;5032915;28;20025;-70
2021/06/13 04:27:01;;;;;;;9.30;2.88;;;;;;;14.64;55.50;101921.38;5028025;28;20030;-70
2021/06/13 04:29:27;;;;;;;18.00;3.25;;;;;;;14.55;55.63;101921.81;5014626;28;20033;-70
2021/06/13 04:31:52;;;;;;;10.80;3.78;;;;;;;14.46;55.79;101926.50;5011023;28;20017;-70
2021/06/13 04:34:18;;;;;;;14.20;3.05;;;;;;;14.78;55.08;101929.94;5033930;28;20029;-70
2021/06/13 04:36:43;;;;;;;13.52;3.20;;;;;;;14.80;54.96;101925.72;5024949;28;20027;-70
2021/06/13 04:39:09;;;;;;;12.38;2.95;;;;;;;14.80;55.18;101928.31;5035608;28;20109;-70
2021/06/13 04:41:35;;;;;;;13.57;3.00;;;;;;;14.76;55.03;101931.56;5028865;28;20061;-70
2021/06/13 04:44:02;;;;;;;18.63;3.03;;;;;;;14.78;55.19;101940.31;5022257;28;20021;-70
2021/06/13 04:46:28;;;;;;;10.50;2.60;;;;;;;14.82;55.22;101937.06;5032874;28;20033;-71
2021/06/13 04:48:55;;;;;;;13.63;3.22;;;;;;;14.56;55.98;101939.13;5018920;28;20067;-71
2021/06/13 04:51:23;;;;;;;16.60;3.20;;;;;;;14.81;55.03;101950.84;5031737;28;20040;-71
2021/06/13 04:53:52;;;;;;;8.82;3.13;;;;;;;14.77;55.30;101954.09;5023084;28;20024;-71
2021/06/13 04:56:26;;;;;;;;;;;;;;;14.73;55.48;101959.94;5018588;28;20372;-70
2021/06/13 04:58:52;;;;;;;12.95;3.00;;;;;;;14.34;58.06;101956.94;5034275;28;19915;-70
2021/06/13 05:01:17;;;;;;;21.90;3.97;;;;;;;14.18;59.22;101956.06;5032582;28;20033;-70
2021/06/13 05:03:43;;;;;;;16.20;4.30;;;;;;;14.63;59.75;101955.03;5024325;28;20038;-71
2021/06/13 05:06:09;;;;;;;15.80;3.90;;;;;;;14.69;59.00;101961.41;5016186;28;20072;-70
2021/06/13 05:08:35;;;;;;;10.93;3.47;;;;;;;14.80;57.82;101949.06;5023005;28;20061;-71
2021/06/13 05:11:01;;;;;;;10.65;3.28;;;;;;;15.02;56.95;101939.81;5022689;28;20472;-70
2021/06/13 05:13:26;;;;;;;15.95;3.92;;;;;;;14.86;56.74;101936.41;5023931;28;20018;-70
2021/06/13 05:15:52;;;;;;;15.73;3.85;;;;;;;14.84;56.56;101940.63;5024399;28;20045;-70
2021/06/13 05:18:17;;;;;;;9.18;3.15;;;;;;;15.03;55.77;101951.97;5023220;28;20018;-70
2021/06/13 05:20:43;;;;;;;14.57;3.55;;;;;;;15.05;55.90;101952.94;5023577;28;20530;-70
2021/06/13 05:23:09;;;;;;;11.10;3.08;;;;;;;15.16;55.77;101943.13;5023674;28;20025;-70
2021/06/13 05:25:36;;;;;;;13.32;3.95;;;;;;;15.25;54.54;101943.59;5027551;28;20079;-70
2021/06/13 05:28:04;;;;;;;12.73;3.67;;;;;;;14.97;55.06;101946.47;5033041;28;20045;-70
2021/06/13 05:30:31;;;;;;;14.65;3.63;;;;;;;14.90;55.26;101948.72;5033279;28;20116;-70
2021/06/13 05:32:57;;;;;;;17.10;3.60;;;;;;;14.90;55.27;101938.34;5016776;28;20029;-71
2021/06/13 05:35:23;;;;;;;14.63;3.78;;;;;;;14.37;56.12;101938.97;5032677;28;20025;-71
2021/06/13 05:37:50;;;;;;;13.85;3.47;;;;;;;14.70;55.51;101936.44;5031797;28;20100;-71
2021/06/13 05:40:19;;;;;;;10.60;3.17;;;;;;;14.85;55.27;101947.59;5032522;28;20094;-71
2021/06/13 05:42:48;;;;;;;15.32;3.63;;;;;;;14.85;55.32;101942.41;5030970;28;20032;-70
2021/06/13 05:45:13;;;;;;;16.90;3.97;;;;;;;14.67;56.30;101946.59;5032654;28;20410;-71
2021/06/13 05:47:40;;;;;;;22.88;4.20;;;;;;;15.01;55.46;101957.09;5029405;28;20026;-71
2021/06/13 05:50:08;;;;;;;16.67;4.50;;;;;;;14.53;56.43;101958.81;5029261;28;20029;-71
2021/06/13 05:52:34;;;;;;;16.65;3.78;;;;;;;14.96;54.28;101949.88;5031613;28;20040;-71
2021/06/13 05:55:00;;;;;;;14.35;3.97;;;;;;;14.97;54.36;101951.66;5027305;28;20045;-70
2021/06/13 05:57:30;;;;;;;12.73;3.50;;;;;;;14.98;55.25;101953.44;5025411;28;20056;-70
2021/06/13 06:00:00;;;;;;;12.25;4.03;;;;;;;14.92;54.80;101963.50;5033740;28;20043;-70
2021/06/13 06:02:26;;;;;;;17.48;4.53;;;;;;;15.35;53.88;101970.88;5015836;28;20421;-71
2021/06/13 06:04:52;;;;;;;15.20;3.58;;;;;;;15.69;53.53;101966.50;5033023;28;20378;-70
2021/06/13 06:07:18;;;;;;;10.75;3.25;;;;;;;16.03;52.94;101963.88;5032207;28;20025;-71
2021/06/13 06:09:44;;;;;;;15.60;3.92;;;;;;;16.24;52.25;101957.91;5031678;28;20120;-70
2021/06/13 06:12:09;;;;;;;16.45;3.70;;;;;;;16.20;51.49;101977.69;5031913;28;20100;-70
2021/06/13 06:14:35;;;;;;;16.83;3.38;;;;;;;15.93;52.23;101977.25;5032149;28;20052;-70
2021/06/13 06:17:01;;;;;;;13.70;3.85;;;;;;;16.28;51.55;101983.22;5031972;28;20022;-71
2021/06/13 06:19:27;;;;;;;13.52;3.78;;;;;;;16.30;50.92;101983.31;5031667;28;20037;-70
2021/06/13 06:21:53;;;;;;;16.38;3.47;;;;;;;16.32;51.25;101982.56;5032583;28;20026;-70
2021/06/13 06:24:19;;;;;;;11.43;3.72;;;;;;;15.99;51.34;101990.53;5029116;28;20398;-71
2021/06/13 06:26:45;;;;;;;12.60;3.63;;;;;;;16.08;51.51;101986.59;5031797;28;20021;-70
2021/06/13 06:29:10;;;;;;;12.88;3.97;;;;;;;16.00;52.21;101994.91;5029107;28;20509;-70
2021/06/13 06:31:35;;;;;;;11.18;3.40;;;;;;;16.15;51.90;101996.47;5032744;28;20087;-70
2021/06/13 06:34:01;;;;;;;10.23;3.55;;;;;;;15.59;53.12;102006.72;5031570;28;20037;-70
2021/06/13 06:36:26;;;;;;;16.50;3.63;;;;;;;15.52;53.43;102009.81;5031877;28;20041;-70
2021/06/13 06:38:52;;;;;;;11.55;3.47;;;;;;;15.81;52.53;102010.38;5033587;28;20025;-71
2021/06/13 06:41:17;;;;;;;10.55;3.50;;;;;;;16.01;52.49;102017.47;5033450;28;20021;-70
2021/06/13 06:43:42;;;;;;;12.38;4.35;;;;;;;15.34;53.70;102010.63;5015743;28;20029;-70
2021/06/13 06:46:08;;;;;;;15.98;4.63;;;;;;;15.71;53.09;102016.81;5031723;28;20025;-70
2021/06/13 06:48:33;;;;;;;9.48;3.13;;;;;;;16.12;52.04;102019.72;5032020;28;20039;-70
2021/06/13 06:50:59;;;;;;;16.38;4.00;;;;;;;15.92;52.42;102022.22;5033069;28;20091;-70
2021/06/13 06:53:24;;;;;;;15.65;4.57;;;;;;;15.83;53.12;102022.63;5032712;28;20161;-70
2021/06/13 06:55:49;;;;;;;10.38;3.67;;;;;;;15.84;53.17;102028.72;5015225;28;20101;-70
2021/06/13 06:58:15;;;;;;;15.10;3.58;;;;;;;16.04;52.70;102028.03;5013510;28;20088;-70
2021/06/13 07:00:40;;;;;;;13.63;3.47;;;;;;;16.70;50.88;102020.69;5029330;28;20030;-70
2021/06/13 07:03:10;;;;;;;11.80;3.58;;;;;;;17.00;50.25;102035.94;5033193;28;20033;-70
2021/06/13 07:05:37;;;;;;;13.00;3.58;;;;;;;17.03;49.88;102033.47;5032679;28;20029;-71
2021/06/13 07:08:03;;;;;;;12.00;3.88;;;;;;;16.86;49.54;102027.47;5032576;28;20029;-71
2021/06/13 07:10:29;;;;;;;13.13;3.33;;;;;;;16.88;49.04;102034.53;5031832;28;20039;-71
2021/06/13 07:12:54;;;;;;;9.07;3.13;;;;;;;17.41;48.64;102046.41;5031621;28;20029;-70
2021/06/13 07:15:19;;;;;;;12.50;3.30;;;;;;;17.77;48.50;102049.72;5030886;28;20450;-71
2021/06/13 07:17:45;;;;;;;14.45;3.22;;;;;;;18.03;47.30;102047.31;5030894;28;20072;-70
2021/06/13 07:20:12;;;;;;;9.35;3.13;;;;;;;17.88;48.13;102041.44;5032019;28;20040;-70
2021/06/13 07:22:38;;;;;;;12.20;3.88;;;;;;;18.10;47.45;102049.34;5030116;28;20450;-70
2021/06/13 07:25:06;;;;;;;12.30;3.75;;;;;;;18.10;47.14;102044.13;5021078;28;20054;-71
2021/06/13 07:27:32;;;;;;;8.00;2.90;;;;;;;18.42;46.81;102061.00;5012946;28;20387;-71
2021/06/13 07:29:57;;;;;;;8.15;3.05;;;;;;;18.47;44.74;102056.84;5012843;28;20533;-70
2021/06/13 07:32:23;;;;;;;10.80;3.47;;;;;;;18.64;42.92;102053.22;5032452;28;20031;-70
2021/06/13 07:34:48;;;;;;;8.90;3.03;;;;;;;18.69;42.97;102041.22;5031214;28;20022;-70
2021/06/13 07:37:14;;;;;;;11.95;3.17;;;;;;;17.98;44.40;102061.84;5030620;28;20042;-71
2021/06/13 07:39:40;;;;;;;12.68;3.45;;;;;;;18.02;44.73;102061.19;5020659;28;20025;-71
2021/06/13 07:42:08;;;;;;;9.90;3.05;;;;;;;17.80;45.99;102070.69;5021718;28;20097;-71
2021/06/13 07:44:33;;;;;;;8.52;3.08;;;;;;;17.64;48.06;102078.69;5019782;28;20422;-71
2021/06/13 07:46:59;;;;;;;9.18;2.92;;;;;;;17.37;49.19;102081.84;5031424;28;20025;-71
2021/06/13 07:49:25;;;;;;;12.23;3.75;;;;;;;17.39;49.78;102077.59;5020055;28;20076;-70
2021/06/13 07:51:52;;;;;;;18.85;3.63;;;;;;;17.33;49.32;102083.44;5021785;28;20096;-71
2021/06/13 07:54:18;;;;;;;9.00;3.58;;;;;;;17.38;49.21;102087.13;5019896;28;20030;-70
2021/06/13 07:56:44;;;;;;;20.13;3.85;;;;;;;17.63;48.89;102092.53;5020405;28;20030;-70
2021/06/13 07:59:09;;;;;;;9.15;2.90;;;;;;;17.52;49.54;102095.56;5021842;28;20025;-71
2021/06/13 08:01:35;;;;;;;8.93;2.95;;;;;;;17.47;49.78;102097.03;5022835;28;20030;-70
2021/06/13 08:04:01;;;;;;;12.35;3.35;;;;;;;17.38;49.26;102094.03;5020808;28;20078;-70
2021/06/13 08:06:26;;;;;;;13.27;3.45;;;;;;;17.56;48.61;102095.69;5019921;28;20022;-70
2021/06/13 08:08:52;;;;;;;11.10;3.10;;;;;;;17.80;49.36;102104.56;5020327;28;20073;-70
2021/06/13 08:11:17;;;;;;;15.18;3.35;;;;;;;18.20;48.63;102107.09;5021632;28;20030;-70
2021/06/13 08:13:42;;;;;;;15.23;3.35;;;;;;;18.31;47.79;102104.94;5021926;28;20078;-70
2021/06/13 08:16:08;;;;;;;7.20;2.45;;;;;;;18.69;47.07;102108.16;5021744;28;20026;-70
2021/06/13 08:18:34;;;;;;;14.57;4.40;;;;;;;18.96;46.38;102105.75;5020355;28;20092;-71
2021/06/13 08:21:00;;;;;;;11.30;2.72;;;;;;;19.43;45.29;102112.69;5005246;28;20490;-71
2021/06/13 08:23:27;;;;;;;12.90;3.10;;;;;;;19.89;43.93;102109.94;5019042;28;20030;-70
2021/06/13 08:25:53;;;;;;;12.45;3.53;;;;;;;20.37;42.72;102114.16;5019593;28;20028;-70
2021/06/13 08:28:19;;;;;;;10.02;2.97;;;;;;;20.41;41.46;102111.66;5030015;28;20030;-71
2021/06/13 08:30:53;;;;;;;9.35;3.13;;;;;;;20.44;40.80;102111.78;5030468;28;20021;-71
2021/06/13 08:33:18;;;;;;;17.50;3.47;;;;;;;19.26;43.76;102099.91;5015865;28;20501;-71
2021/06/13 08:35:43;;;;;;;11.95;3.75;;;;;;;19.39;43.20;102113.41;5033141;28;20037;-71
2021/06/13 08:38:09;;;;;;;7.65;2.80;;;;;;;19.45;43.64;102121.47;5034151;28;20037;-72
2021/06/13 08:40:35;;;;;;;10.93;3.13;;;;;;;19.20;43.80;102117.97;5033764;28;20044;-69
2021/06/13 08:43:02;;;;;;;11.90;2.88;;;;;;;19.76;42.66;102113.84;5034399;28;20589;-71
2021/06/13 08:45:37;;;;;;;10.93;3.13;;;;;;;20.02;41.61;102121.72;5026716;28;20053;-70
2021/06/13 08:48:04;;;;;;;12.60;3.15;;;;;;;20.44;41.13;102111.78;5019961;28;20475;-71
2021/06/13 08:50:33;;;;;;;7.78;2.60;;;;;;;20.70;39.24;102116.97;5024051;28;20021;-71
2021/06/13 08:53:00;;;;;;;11.98;2.92;;;;;;;20.99;39.06;102121.31;5023556;28;20024;-73
2021/06/13 08:55:28;;;;;;;8.48;2.83;;;;;;;20.72;39.40;102120.50;5023735;28;20025;-71
2021/06/13 08:57:55;;;;;;;10.45;3.33;;;;;;;20.06;40.33;102129.72;5023420;28;20021;-71
2021/06/13 09:00:24;;;;;;;9.35;2.75;;;;;;;19.86;41.32;102131.63;5025315;28;20025;-72
2021/06/13 09:02:50;;;;;;;8.18;3.08;;;;;;;20.24;39.91;102133.78;5005148;28;20104;-71
2021/06/13 09:05:19;;;;;;;10.38;3.08;;;;;;;20.36;39.74;102144.66;5023852;28;20113;-71
2021/06/13 09:07:50;;;;;;;13.23;3.25;;;;;;;20.25;40.68;102132.94;5023264;28;20032;-72
2021/06/13 09:10:19;;;;;;;14.90;4.65;;;;;;;19.86;42.62;102134.22;4992718;28;20096;-71
2021/06/13 09:12:46;;;;;;;12.73;4.18;;;;;;;19.95;42.33;102136.31;4994419;28;20022;-72
2021/06/13 09:15:12;;;;;;;11.63;4.53;;;;;;;19.62;43.63;102136.91;4990045;28;20034;-71
2021/06/13 09:17:42;;;;;;;9.55;2.97;;;;;;;19.21;45.00;102138.03;4988094;28;20391;-71
2021/06/13 09:26:36;;;;;;;12.55;3.13;;;;;;;19.02;44.61;102148.63;2820899;28;22676;-71
2021/06/13 09:29:02;;;;;;;11.23;3.15;;;;;;;19.26;44.72;102154.75;5098149;27;20043;-70
2021/06/13 09:31:29;;;;;;;12.88;3.85;;;;;;;19.67;43.59;102145.78;5116345;27;20020;-71
2021/06/13 09:33:59;;;;;;;12.18;3.38;;;;;;;20.01;41.89;102157.44;5100071;27;20046;-70
2021/06/13 09:36:29;;;;;;;8.25;2.80;;;;;;;20.99;41.34;102169.34;5091795;27;20060;-70
2021/06/13 09:39:01;;;;;;;13.98;3.35;;;;;;;21.71;39.91;102166.16;5108973;27;20103;-70
2021/06/13 09:41:28;;;;;;;14.68;4.07;;;;;;;23.28;36.47;102162.97;5075641;28;20028;-70
2021/06/13 09:44:03;;;;;;;10.75;3.65;;;;;;;23.70;34.79;102176.03;5076149;28;20052;-70
2021/06/13 09:46:31;;;;;;;11.30;3.75;;;;;;;22.71;35.97;102170.44;5075932;28;20536;-70
2021/06/13 09:49:05;;;;;;;12.00;3.78;;;;;;;21.91;37.84;102184.19;5078173;28;20035;-71
2021/06/13 09:51:33;;;;;;;8.07;2.97;;;;;;;20.96;39.29;102174.50;5115297;28;20039;-71
2021/06/13 09:53:59;;;;;;;10.02;3.60;;;;;;;21.31;37.73;102177.28;5079793;28;20391;-69
2021/06/13 09:56:39;;;;;;;9.32;3.70;;;;;;;23.60;34.14;102170.59;5098322;27;20023;-69
2021/06/13 09:59:22;;;;;;;;;;;;;;;26.52;29.12;102169.25;5076397;28;20136;-72
2021/06/13 10:01:52;;;;;;;14.05;3.33;;;;;;;29.10;25.26;102159.09;5092250;28;19937;-68
2021/06/13 10:04:18;;;;;;;8.70;3.10;;;;;;;30.83;23.66;102161.34;5095508;28;20028;-71
2021/06/13 10:10:06;;;;;;;10.30;3.47;;;;;;;26.01;29.54;102165.31;5100886;27;20038;-70
2021/06/13 10:12:32;;;;;;;11.07;3.45;;;;;;;25.34;29.40;102157.56;5116942;27;20011;-70
2021/06/13 10:15:11;;;;;;;9.02;2.55;;;;;;;27.16;27.16;102166.97;5114378;28;20468;-71
2021/06/13 10:17:36;;;;;;;8.73;3.00;;;;;;;27.21;27.91;102148.50;5102548;27;20024;-70
2021/06/13 10:20:42;;;;;;;8.77;3.13;;;;;;;27.27;27.35;102153.81;5086887;27;20031;-70
2021/06/13 10:23:08;;;;;;;7.28;3.25;;;;;;;25.88;28.98;102154.63;5119548;27;20491;-70
2021/06/13 10:25:34;;;;;;;8.70;2.53;;;;;;;28.74;24.40;102166.28;5101768;27;20034;-71
2021/06/13 10:27:59;;;;;;;10.90;3.42;;;;;;;31.43;21.15;102154.41;5101373;27;20039;-70
2021/06/13 10:30:25;;;;;;;8.52;2.70;;;;;;;31.42;20.99;102160.63;5088491;27;20015;-71
2021/06/13 10:36:12;;;;;;;12.98;3.75;;;;;;;29.27;24.03;102152.84;5108131;27;20035;-70
2021/06/13 10:38:38;;;;;;;7.28;3.17;;;;;;;29.26;23.98;102148.44;5099147;27;20019;-71
2021/06/13 10:41:04;;;;;;;11.18;3.40;;;;;;;32.14;20.54;102148.84;5101584;27;20015;-70
2021/06/13 10:43:31;;;;;;;7.78;2.75;;;;;;;32.89;19.99;102154.56;5122360;27;20019;-70
2021/06/13 10:46:04;;;;;;;13.07;4.65;;;;;;;31.01;21.69;102154.03;5085382;27;20030;-71
2021/06/13 10:48:38;;;;;;;7.85;3.00;;;;;;;26.56;26.78;102158.69;5124409;27;20022;-71
2021/06/13 10:51:37;;;;;;;8.20;3.42;;;;;;;26.86;27.40;102157.13;5102383;27;20022;-71
2021/06/13 10:54:39;;;;;;;10.55;3.08;;;;;;;28.74;24.34;102145.06;5103696;27;20059;-70
2021/06/13 10:57:04;;;;;;;10.07;3.38;;;;;;;31.31;21.32;102149.25;5095910;28;20026;-70
2021/06/13 10:59:40;;;;;;;8.23;3.38;;;;;;;31.65;20.40;102162.06;5095137;28;20106;-70
2021/06/13 11:02:22;;;;;;;7.95;3.20;;;;;;;29.03;23.79;102162.66;5122620;27;20102;-69
2021/06/13 11:04:48;;;;;;;9.55;3.25;;;;;;;29.34;24.40;102162.53;5103924;27;20059;-69
2021/06/13 11:10:06;;;;;;;10.55;3.38;;;;;;;30.79;22.23;102159.63;5121491;27;20024;-70
2021/06/13 11:12:51;;;;;;;8.07;3.22;;;;;;;29.55;23.74;102161.53;5120044;27;20064;-70
2021/06/13 11:15:26;;;;;;;7.13;3.30;;;;;;;27.73;26.94;102157.47;5109532;27;20490;-71
2021/06/13 11:17:54;;;;;;;9.88;3.38;;;;;;;25.94;28.97;102169.63;5098840;27;20040;-70
2021/06/13 11:23:07;;;;;;;10.25;3.22;;;;;;;24.79;31.82;102157.72;5113600;27;20368;-70
2021/06/13 11:25:37;;;;;;;8.88;3.70;;;;;;;24.80;31.54;102170.91;5099729;28;20115;-70
2021/06/13 11:28:31;;;;;;;10.30;3.53;;;;;;;24.77;31.52;102160.31;5120012;27;20043;-70
2021/06/13 11:30:57;;;;;;;8.77;3.45;;;;;;;24.91;30.75;102168.44;5096549;28;20030;-70
2021/06/13 11:33:35;;;;;;;10.05;3.20;;;;;;;24.58;31.84;102168.78;5099797;28;20492;-69
2021/06/13 11:36:04;;;;;;;7.45;3.15;;;;;;;24.49;32.75;102165.16;5114491;28;20062;-68
2021/06/13 11:38:30;;;;;;;10.10;3.80;;;;;;;24.30;34.08;102173.63;5099741;28;20389;-68
2021/06/13 11:41:01;;;;;;;9.20;2.75;;;;;;;24.38;32.84;102163.19;5084635;28;20160;-68
2021/06/13 11:43:47;;;;;;;9.18;3.58;;;;;;;24.65;32.39;102165.38;5092035;28;20582;-69
2021/06/13 11:46:13;;;;;;;7.65;3.05;;;;;;;24.71;31.29;102168.09;5118709;28;20079;-69